createdAt,value
2018-01-13T00:00:01.766Z,82.65
2018-01-13T00:01:01.780Z,82.08
2018-01-13T00:02:01.844Z,82.27
2018-01-13T00:03:01.568Z,82.46
2018-01-13T00:04:01.572Z,82.46
2018-01-13T00:05:01.870Z,82.46
2018-01-13T00:06:01.604Z,82.17
2018-01-13T00:07:01.908Z,82.17
2018-01-13T00:08:01.912Z,81.79
2018-01-13T00:09:01.903Z,81.26
2018-01-13T00:10:01.919Z,81.36
2018-01-13T00:11:01.945Z,81.23
2018-01-13T00:12:01.695Z,81.55
2018-01-13T00:13:01.720Z,81.36
2018-01-13T00:14:01.725Z,80.79
2018-01-13T00:15:01.754Z,81.17
2018-01-13T00:16:01.753Z,80.88
2018-01-13T00:17:02.073Z,81.26
2018-01-13T00:18:02.038Z,81.45
2018-01-13T00:19:02.073Z,80.88
2018-01-13T00:20:01.824Z,80.88
2018-01-13T00:21:02.095Z,80.69
2018-01-13T00:22:01.843Z,80.6
2018-01-13T00:23:01.859Z,80.51
2018-01-13T00:24:02.127Z,80.79
2018-01-13T00:25:01.889Z,80.41
2018-01-13T00:26:02.155Z,80.41
2018-01-13T00:27:02.169Z,80.98
2018-01-13T00:28:02.187Z,81.41
2018-01-13T00:29:01.948Z,81.79
2018-01-13T00:30:02.219Z,82.08
2018-01-13T00:31:02.231Z,81.88
2018-01-13T00:32:02.045Z,81.7
2018-01-13T00:33:02.262Z,81.88
2018-01-13T00:34:02.025Z,81.79
2018-01-13T00:35:02.292Z,81.88
2018-01-13T00:36:02.060Z,81.36
2018-01-13T00:37:02.320Z,82.08
2018-01-13T00:38:02.334Z,81.93
2018-01-13T00:39:02.350Z,82.08
2018-01-13T00:40:02.391Z,81.45
2018-01-13T00:41:02.131Z,81.36
2018-01-13T00:42:02.406Z,81.93
2018-01-13T00:43:02.412Z,81.88
2018-01-13T00:44:02.427Z,82.03
2018-01-13T00:45:02.442Z,82.03
2018-01-13T00:46:02.476Z,81.74
2018-01-13T00:47:02.272Z,81.36
2018-01-13T00:48:02.236Z,81.45
2018-01-13T00:49:02.504Z,81.26
2018-01-13T00:50:02.265Z,82.03
2018-01-13T00:51:02.530Z,81.84
2018-01-13T00:52:02.547Z,81.93
2018-01-13T00:53:02.310Z,81.74
2018-01-13T00:54:02.326Z,81.93
2018-01-13T00:55:02.340Z,82.12
2018-01-13T00:56:02.606Z,81.88
2018-01-13T00:57:02.371Z,83.03
2018-01-13T00:58:02.658Z,82.84
2018-01-13T00:59:02.408Z,82.84
2018-01-13T01:00:02.667Z,82.84
2018-01-13T01:01:02.688Z,82.93
2018-01-13T01:02:02.498Z,83.03
2018-01-13T01:03:02.469Z,82.84
2018-01-13T01:04:02.476Z,82.65
2018-01-13T01:05:02.740Z,82.46
2018-01-13T01:06:02.523Z,81.98
2018-01-13T01:07:02.778Z,81.79
2018-01-13T01:08:02.536Z,82.55
2018-01-13T01:09:02.801Z,82.55
2018-01-13T01:10:02.819Z,82.46
2018-01-13T01:11:02.834Z,82.84
2018-01-13T01:12:02.595Z,82.17
2018-01-13T01:13:02.863Z,82.17
2018-01-13T01:14:02.636Z,81.7
2018-01-13T01:15:02.641Z,81.32
2018-01-13T01:16:02.907Z,80.94
2018-01-13T01:17:02.973Z,82.08
2018-01-13T01:18:02.688Z,81.98
2018-01-13T01:19:02.706Z,81.98
2018-01-13T01:20:02.976Z,82.17
2018-01-13T01:21:02.731Z,82.08
2018-01-13T01:22:02.997Z,81.88
2018-01-13T01:23:03.014Z,81.88
2018-01-13T01:24:03.027Z,81.23
2018-01-13T01:25:02.793Z,81.79
2018-01-13T01:26:02.808Z,81.51
2018-01-13T01:27:02.827Z,81.6
2018-01-13T01:28:02.838Z,81.41
2018-01-13T01:29:02.854Z,81.32
2018-01-13T01:30:03.124Z,81.07
2018-01-13T01:31:02.892Z,80.79
2018-01-13T01:32:03.201Z,80.88
2018-01-13T01:33:03.164Z,80.32
2018-01-13T01:34:02.926Z,80.98
2018-01-13T01:35:03.196Z,80.79
2018-01-13T01:36:03.210Z,81.07
2018-01-13T01:37:03.246Z,81.07
2018-01-13T01:38:03.244Z,81.79
2018-01-13T01:39:03.256Z,82.08
2018-01-13T01:40:03.019Z,81.79
2018-01-13T01:41:03.282Z,81.88
2018-01-13T01:42:03.296Z,81.98
2018-01-13T01:43:03.064Z,81.88
2018-01-13T01:44:03.085Z,82.46
2018-01-13T01:45:03.347Z,82.55
2018-01-13T01:46:03.115Z,82.55
2018-01-13T01:47:03.279Z,82.74
2018-01-13T01:48:03.140Z,82.55
2018-01-13T01:49:03.177Z,82.55
2018-01-13T01:50:03.178Z,82.65
2018-01-13T01:51:03.183Z,82.08
2018-01-13T01:52:03.451Z,82.27
2018-01-13T01:53:03.511Z,82.27
2018-01-13T01:54:03.482Z,81.98
2018-01-13T01:55:03.493Z,82.65
2018-01-13T01:56:03.261Z,82.55
2018-01-13T01:57:03.521Z,82.46
2018-01-13T01:58:03.288Z,82.08
2018-01-13T01:59:03.302Z,81.93
2018-01-13T02:00:03.572Z,82.12
2018-01-13T02:01:03.588Z,81.7
2018-01-13T02:02:03.402Z,82.84
2018-01-13T02:03:03.615Z,82.46
2018-01-13T02:04:03.632Z,83.31
2018-01-13T02:05:03.656Z,83.03
2018-01-13T02:06:03.408Z,82.84
2018-01-13T02:07:03.424Z,82.55
2018-01-13T02:08:03.439Z,82.55
2018-01-13T02:09:03.454Z,82.88
2018-01-13T02:10:03.471Z,82.21
2018-01-13T02:11:03.486Z,82.69
2018-01-13T02:12:03.751Z,82.59
2018-01-13T02:13:03.768Z,82.69
2018-01-13T02:14:03.788Z,82.59
2018-01-13T02:15:03.546Z,83.12
2018-01-13T02:16:03.821Z,83.31
2018-01-13T02:17:03.876Z,83.59
2018-01-13T02:18:03.849Z,84.17
2018-01-13T02:19:03.862Z,84.17
2018-01-13T02:20:03.621Z,84.07
2018-01-13T02:21:03.887Z,83.69
2018-01-13T02:22:04.000Z,83.4
2018-01-13T02:23:03.919Z,83.4
2018-01-13T02:24:03.682Z,83.31
2018-01-13T02:25:03.951Z,83.22
2018-01-13T02:26:03.961Z,83.22
2018-01-13T02:27:03.977Z,83.78
2018-01-13T02:28:03.738Z,83.88
2018-01-13T02:29:04.007Z,83.69
2018-01-13T02:30:04.027Z,84.45
2018-01-13T02:31:04.034Z,84.17
2018-01-13T02:32:04.099Z,83.78
2018-01-13T02:33:03.810Z,83.78
2018-01-13T02:34:04.079Z,83.69
2018-01-13T02:35:03.845Z,84.36
2018-01-13T02:36:04.110Z,84.07
2018-01-13T02:37:04.123Z,84.26
2018-01-13T02:38:04.141Z,84.36
2018-01-13T02:39:04.355Z,84.26
2018-01-13T02:40:03.916Z,84.36
2018-01-13T02:41:03.932Z,84.83
2018-01-13T02:42:04.204Z,84.36
2018-01-13T02:43:03.962Z,84.07
2018-01-13T02:44:04.327Z,84.17
2018-01-13T02:45:04.241Z,84.36
2018-01-13T02:46:04.005Z,83.78
2018-01-13T02:47:04.019Z,83.4
2018-01-13T02:48:04.288Z,83.31
2018-01-13T02:49:04.402Z,83.5
2018-01-13T02:50:04.315Z,83.4
2018-01-13T02:51:04.079Z,83.31
2018-01-13T02:52:04.351Z,83.69
2018-01-13T02:53:04.109Z,84.07
2018-01-13T02:54:04.374Z,84.45
2018-01-13T02:55:04.145Z,84.64
2018-01-13T02:56:04.408Z,84.83
2018-01-13T02:57:04.435Z,84.92
2018-01-13T02:58:04.182Z,84.07
2018-01-13T02:59:04.446Z,84.11
2018-01-13T03:00:04.213Z,83.92
2018-01-13T03:01:04.478Z,83.54
2018-01-13T03:02:04.242Z,83.45
2018-01-13T03:03:04.256Z,83.64
2018-01-13T03:04:04.321Z,82.97
2018-01-13T03:05:04.538Z,82.97
2018-01-13T03:06:04.300Z,82.97
2018-01-13T03:07:04.313Z,83.16
2018-01-13T03:08:04.583Z,83.73
2018-01-13T03:09:04.617Z,83.5
2018-01-13T03:10:04.361Z,83.5
2018-01-13T03:11:04.375Z,83.64
2018-01-13T03:12:04.641Z,83.88
2018-01-13T03:13:04.403Z,83.45
2018-01-13T03:14:04.419Z,83.26
2018-01-13T03:15:04.435Z,83.16
2018-01-13T03:16:04.708Z,83.26
2018-01-13T03:17:04.479Z,82.97
2018-01-13T03:18:04.478Z,82.97
2018-01-13T03:19:04.551Z,83.26
2018-01-13T03:20:04.809Z,83.36
2018-01-13T03:21:04.523Z,82.4
2018-01-13T03:22:04.543Z,82.5
2018-01-13T03:23:04.553Z,83.45
2018-01-13T03:24:04.820Z,83.26
2018-01-13T03:25:04.584Z,83.54
2018-01-13T03:26:04.858Z,83.88
2018-01-13T03:27:04.871Z,83.78
2018-01-13T03:28:04.880Z,84.07
2018-01-13T03:29:04.643Z,84.17
2018-01-13T03:30:04.923Z,83.88
2018-01-13T03:31:04.929Z,83.88
2018-01-13T03:32:04.938Z,83.88
2018-01-13T03:33:04.957Z,83.69
2018-01-13T03:34:05.020Z,84.17
2018-01-13T03:35:04.985Z,84.07
2018-01-13T03:36:04.747Z,84.36
2018-01-13T03:37:04.762Z,84.74
2018-01-13T03:38:04.784Z,84.83
2018-01-13T03:39:05.142Z,84.74
2018-01-13T03:40:04.805Z,84.45
2018-01-13T03:41:04.821Z,84.45
2018-01-13T03:42:04.835Z,85.4
2018-01-13T03:43:05.101Z,86.44
2018-01-13T03:44:04.867Z,85.78
2018-01-13T03:45:05.133Z,85.87
2018-01-13T03:46:04.897Z,85.97
2018-01-13T03:47:04.909Z,85.4
2018-01-13T03:48:05.174Z,85.49
2018-01-13T03:49:05.237Z,84.45
2018-01-13T03:50:04.953Z,84.26
2018-01-13T03:51:04.967Z,84.07
2018-01-13T03:52:05.235Z,84.64
2018-01-13T03:53:05.253Z,85.78
2018-01-13T03:54:05.261Z,86.4
2018-01-13T03:55:05.025Z,86.4
2018-01-13T03:56:05.042Z,86.35
2018-01-13T03:57:05.053Z,85.78
2018-01-13T03:58:05.321Z,85.59
2018-01-13T03:59:05.341Z,85.83
2018-01-13T04:00:05.098Z,85.97
2018-01-13T04:01:05.114Z,85.93
2018-01-13T04:02:05.128Z,85.87
2018-01-13T04:03:05.394Z,85.78
2018-01-13T04:04:06.561Z,85.21
2018-01-13T04:05:05.424Z,85.3
2018-01-13T04:06:05.435Z,85.4
2018-01-13T04:07:05.458Z,85.78
2018-01-13T04:08:05.215Z,85.78
2018-01-13T04:09:05.479Z,86.4
2018-01-13T04:10:05.248Z,86.21
2018-01-13T04:11:05.510Z,85.93
2018-01-13T04:12:05.523Z,86.21
2018-01-13T04:13:05.538Z,86.16
2018-01-13T04:14:05.300Z,86.3
2018-01-13T04:15:05.575Z,86.3
2018-01-13T04:16:05.584Z,86.21
2018-01-13T04:17:05.347Z,85.49
2018-01-13T04:18:05.362Z,85.55
2018-01-13T04:19:05.684Z,85.4
2018-01-13T04:20:05.640Z,85.21
2018-01-13T04:21:05.405Z,85.68
2018-01-13T04:22:05.672Z,85.97
2018-01-13T04:23:05.685Z,85.55
2018-01-13T04:24:05.703Z,86.3
2018-01-13T04:25:05.463Z,86.4
2018-01-13T04:26:05.726Z,86.11
2018-01-13T04:27:05.492Z,86.02
2018-01-13T04:28:05.764Z,86.3
2018-01-13T04:29:05.773Z,86.4
2018-01-13T04:30:05.785Z,86.35
2018-01-13T04:31:05.549Z,85.78
2018-01-13T04:32:05.566Z,86.49
2018-01-13T04:33:05.827Z,86.4
2018-01-13T04:34:05.844Z,85.64
2018-01-13T04:35:05.864Z,85.4
2018-01-13T04:36:05.673Z,85.4
2018-01-13T04:37:05.888Z,85.3
2018-01-13T04:38:05.904Z,85.4
2018-01-13T04:39:05.666Z,85.21
2018-01-13T04:40:05.685Z,84.92
2018-01-13T04:41:05.793Z,84.83
2018-01-13T04:42:05.962Z,84.83
2018-01-13T04:43:05.976Z,84.55
2018-01-13T04:44:05.744Z,84.55
2018-01-13T04:45:05.753Z,84.55
2018-01-13T04:46:06.037Z,84.92
2018-01-13T04:47:06.036Z,84.36
2018-01-13T04:48:05.798Z,84.36
2018-01-13T04:49:06.063Z,84.55
2018-01-13T04:50:06.081Z,85.02
2018-01-13T04:51:06.156Z,85.49
2018-01-13T04:52:05.855Z,84.92
2018-01-13T04:53:05.871Z,84.92
2018-01-13T04:54:06.136Z,85.4
2018-01-13T04:55:05.903Z,85.02
2018-01-13T04:56:06.168Z,84.83
2018-01-13T04:57:06.180Z,84.36
2018-01-13T04:58:06.196Z,84.36
2018-01-13T04:59:05.960Z,84.74
2018-01-13T05:00:05.974Z,84.74
2018-01-13T05:01:06.243Z,84.83
2018-01-13T05:02:06.005Z,85.02
2018-01-13T05:03:06.272Z,84.64
2018-01-13T05:04:06.285Z,84.55
2018-01-13T05:05:06.049Z,84.45
2018-01-13T05:06:06.364Z,84.55
2018-01-13T05:07:06.077Z,84.17
2018-01-13T05:08:06.342Z,84.26
2018-01-13T05:09:06.103Z,84.36
2018-01-13T05:10:06.370Z,84.26
2018-01-13T05:11:06.385Z,84.26
2018-01-13T05:12:06.404Z,84.55
2018-01-13T05:13:06.415Z,84.55
2018-01-13T05:14:06.181Z,84.64
2018-01-13T05:15:06.455Z,84.55
2018-01-13T05:16:06.459Z,84.92
2018-01-13T05:17:06.223Z,84.83
2018-01-13T05:18:06.238Z,85.59
2018-01-13T05:19:06.505Z,85.21
2018-01-13T05:20:06.518Z,85.11
2018-01-13T05:21:06.586Z,84.92
2018-01-13T05:22:06.299Z,85.02
2018-01-13T05:23:06.566Z,84.45
2018-01-13T05:24:06.328Z,84.17
2018-01-13T05:25:06.342Z,84.36
2018-01-13T05:26:06.608Z,84.01
2018-01-13T05:27:06.387Z,84.26
2018-01-13T05:28:06.387Z,84.4
2018-01-13T05:29:06.401Z,84.17
2018-01-13T05:30:06.417Z,84.21
2018-01-13T05:31:06.682Z,84.83
2018-01-13T05:32:06.444Z,84.26
2018-01-13T05:33:06.463Z,84.49
2018-01-13T05:34:06.730Z,84.68
2018-01-13T05:35:06.742Z,84.3
2018-01-13T05:36:06.811Z,83.64
2018-01-13T05:37:06.525Z,84.83
2018-01-13T05:38:06.534Z,84.07
2018-01-13T05:39:06.810Z,85.21
2018-01-13T05:40:06.815Z,84.55
2018-01-13T05:41:06.579Z,84.92
2018-01-13T05:42:06.596Z,84.92
2018-01-13T05:43:06.861Z,85.02
2018-01-13T05:44:06.884Z,84.92
2018-01-13T05:45:06.888Z,84.83
2018-01-13T05:46:06.654Z,84.74
2018-01-13T05:47:06.668Z,85.21
2018-01-13T05:48:06.684Z,84.36
2018-01-13T05:49:06.949Z,84.45
2018-01-13T05:50:06.964Z,84.55
2018-01-13T05:51:06.778Z,84.26
2018-01-13T05:52:06.996Z,84.83
2018-01-13T05:53:06.758Z,85.21
2018-01-13T05:54:06.773Z,84.92
2018-01-13T05:55:07.041Z,84.74
2018-01-13T05:56:07.059Z,84.92
2018-01-13T05:57:07.070Z,84.83
2018-01-13T05:58:06.832Z,85.21
2018-01-13T05:59:06.847Z,85.3
2018-01-13T06:00:07.113Z,85.11
2018-01-13T06:01:07.127Z,84.92
2018-01-13T06:02:07.145Z,85.3
2018-01-13T06:03:06.906Z,85.87
2018-01-13T06:04:07.177Z,85.74
2018-01-13T06:05:07.189Z,86.3
2018-01-13T06:06:07.002Z,86.49
2018-01-13T06:07:07.217Z,86.21
2018-01-13T06:08:07.230Z,86.4
2018-01-13T06:09:06.997Z,85.83
2018-01-13T06:10:07.009Z,86.11
2018-01-13T06:11:07.274Z,86.21
2018-01-13T06:12:07.039Z,86.4
2018-01-13T06:13:07.303Z,85.93
2018-01-13T06:14:07.071Z,86.59
2018-01-13T06:15:07.333Z,86.68
2018-01-13T06:16:07.351Z,86.68
2018-01-13T06:17:07.364Z,86.49
2018-01-13T06:18:07.380Z,86.59
2018-01-13T06:19:07.396Z,87.35
2018-01-13T06:20:07.156Z,87.06
2018-01-13T06:21:07.219Z,87.25
2018-01-13T06:22:07.185Z,87.06
2018-01-13T06:23:07.459Z,86.78
2018-01-13T06:24:07.213Z,86.59
2018-01-13T06:25:07.481Z,87.25
2018-01-13T06:26:07.243Z,86.97
2018-01-13T06:27:07.256Z,86.11
2018-01-13T06:28:07.272Z,86.11
2018-01-13T06:29:07.537Z,86.68
2018-01-13T06:30:07.301Z,86.59
2018-01-13T06:31:07.315Z,86.21
2018-01-13T06:32:07.330Z,86.97
2018-01-13T06:33:07.597Z,86.78
2018-01-13T06:34:07.358Z,86.59
2018-01-13T06:35:07.374Z,86.11
2018-01-13T06:36:07.688Z,85.59
2018-01-13T06:37:07.653Z,86.3
2018-01-13T06:38:07.679Z,86.4
2018-01-13T06:39:07.683Z,85.87
2018-01-13T06:40:07.444Z,85.83
2018-01-13T06:41:07.708Z,85.97
2018-01-13T06:42:07.726Z,85.55
2018-01-13T06:43:07.742Z,85.83
2018-01-13T06:44:07.754Z,85.93
2018-01-13T06:45:07.768Z,85.93
2018-01-13T06:46:07.786Z,85.93
2018-01-13T06:47:07.548Z,85.64
2018-01-13T06:48:07.812Z,86.49
2018-01-13T06:49:07.574Z,86.21
2018-01-13T06:50:07.590Z,85.55
2018-01-13T06:51:07.852Z,85.64
2018-01-13T06:52:07.616Z,85.83
2018-01-13T06:53:07.633Z,86.3
2018-01-13T06:54:07.647Z,86.21
2018-01-13T06:55:07.662Z,85.93
2018-01-13T06:56:07.678Z,86.4
2018-01-13T06:57:07.690Z,86.02
2018-01-13T06:58:07.956Z,86.87
2018-01-13T06:59:07.972Z,86.78
2018-01-13T07:00:07.989Z,87.16
2018-01-13T07:01:08.005Z,86.97
2018-01-13T07:02:08.061Z,87.63
2018-01-13T07:03:07.775Z,87.06
2018-01-13T07:04:07.789Z,87.06
2018-01-13T07:05:07.803Z,86.97
2018-01-13T07:06:07.817Z,86.97
2018-01-13T07:07:07.831Z,86.49
2018-01-13T07:08:07.847Z,86.87
2018-01-13T07:09:08.113Z,86.49
2018-01-13T07:10:08.131Z,86.87
2018-01-13T07:11:07.890Z,86.78
2018-01-13T07:12:08.158Z,87.06
2018-01-13T07:13:08.176Z,86.78
2018-01-13T07:14:08.186Z,86.87
2018-01-13T07:15:07.946Z,86.68
2018-01-13T07:16:08.009Z,86.78
2018-01-13T07:17:07.975Z,86.97
2018-01-13T07:18:08.248Z,87.16
2018-01-13T07:19:08.005Z,87.63
2018-01-13T07:20:08.020Z,87.06
2018-01-13T07:21:08.035Z,87.16
2018-01-13T07:22:08.047Z,86.59
2018-01-13T07:23:08.109Z,86.3
2018-01-13T07:24:08.325Z,87.16
2018-01-13T07:25:08.089Z,87.06
2018-01-13T07:26:08.103Z,87.73
2018-01-13T07:27:08.370Z,86.68
2018-01-13T07:28:08.131Z,88.2
2018-01-13T07:29:08.399Z,87.82
2018-01-13T07:30:08.410Z,87.92
2018-01-13T07:31:08.175Z,87.63
2018-01-13T07:32:08.440Z,87.73
2018-01-13T07:33:08.199Z,87.92
2018-01-13T07:34:08.217Z,88.01
2018-01-13T07:35:08.231Z,87.54
2018-01-13T07:36:08.243Z,87.35
2018-01-13T07:37:08.510Z,86.87
2018-01-13T07:38:08.598Z,86.78
2018-01-13T07:39:08.532Z,87.35
2018-01-13T07:40:08.299Z,88.01
2018-01-13T07:41:08.566Z,86.97
2018-01-13T07:42:08.330Z,87.06
2018-01-13T07:43:08.693Z,86.97
2018-01-13T07:44:08.360Z,86.49
2018-01-13T07:45:08.373Z,86.68
2018-01-13T07:46:08.386Z,86.87
2018-01-13T07:47:08.402Z,86.11
2018-01-13T07:48:08.668Z,86.4
2018-01-13T07:49:08.683Z,86.3
2018-01-13T07:50:08.444Z,86.59
2018-01-13T07:51:08.710Z,86.59
2018-01-13T07:52:08.729Z,86.02
2018-01-13T07:53:08.867Z,86.11
2018-01-13T07:54:08.753Z,85.83
2018-01-13T07:55:08.515Z,85.74
2018-01-13T07:56:08.779Z,85.17
2018-01-13T07:57:08.801Z,85.45
2018-01-13T07:58:08.557Z,85.45
2018-01-13T07:59:08.571Z,85.36
2018-01-13T08:00:08.591Z,85.17
2018-01-13T08:01:08.851Z,85.4
2018-01-13T08:02:08.866Z,85.45
2018-01-13T08:03:08.883Z,84.78
2018-01-13T08:04:08.646Z,85.02
2018-01-13T08:05:08.660Z,84.92
2018-01-13T08:06:08.925Z,84.55
2018-01-13T08:07:08.945Z,84.45
2018-01-13T08:08:08.752Z,84.17
2018-01-13T08:09:08.974Z,84.36
2018-01-13T08:10:08.732Z,84.26
2018-01-13T08:11:09.002Z,84.17
2018-01-13T08:12:09.013Z,84.17
2018-01-13T08:13:08.774Z,84.88
2018-01-13T08:14:09.041Z,84.88
2018-01-13T08:15:09.062Z,84.55
2018-01-13T08:16:09.070Z,84.26
2018-01-13T08:17:08.837Z,84.45
2018-01-13T08:18:09.102Z,84.5
2018-01-13T08:19:09.117Z,84.31
2018-01-13T08:20:09.133Z,84.17
2018-01-13T08:21:09.145Z,83.69
2018-01-13T08:22:09.158Z,83.59
2018-01-13T08:23:09.273Z,83.5
2018-01-13T08:24:08.935Z,83.88
2018-01-13T08:25:09.198Z,83.5
2018-01-13T08:26:09.220Z,83.88
2018-01-13T08:27:09.232Z,83.12
2018-01-13T08:28:09.296Z,83.22
2018-01-13T08:29:09.259Z,83.88
2018-01-13T08:30:09.025Z,83.12
2018-01-13T08:31:09.038Z,82.93
2018-01-13T08:32:09.302Z,83.12
2018-01-13T08:33:09.071Z,82.74
2018-01-13T08:34:09.082Z,82.55
2018-01-13T08:35:09.348Z,83.4
2018-01-13T08:36:09.112Z,83.03
2018-01-13T08:37:09.381Z,83.4
2018-01-13T08:38:09.445Z,83.88
2018-01-13T08:39:09.155Z,83.78
2018-01-13T08:40:09.421Z,83.5
2018-01-13T08:41:09.434Z,83.69
2018-01-13T08:42:09.453Z,83.5
2018-01-13T08:43:09.215Z,83.5
2018-01-13T08:44:09.229Z,82.84
2018-01-13T08:45:09.495Z,83.31
2018-01-13T08:46:09.509Z,83.03
2018-01-13T08:47:09.521Z,83.69
2018-01-13T08:48:09.285Z,84.17
2018-01-13T08:49:09.552Z,84.17
2018-01-13T08:50:09.314Z,84.17
2018-01-13T08:51:09.330Z,83.88
2018-01-13T08:52:09.343Z,83.5
2018-01-13T08:53:09.664Z,83.4
2018-01-13T08:54:09.626Z,83.78
2018-01-13T08:55:09.645Z,83.59
2018-01-13T08:56:09.403Z,83.22
2018-01-13T08:57:09.676Z,83.78
2018-01-13T08:58:09.441Z,83.97
2018-01-13T08:59:09.697Z,82.93
2018-01-13T09:00:09.733Z,83.03
2018-01-13T09:01:09.476Z,82.65
2018-01-13T09:02:09.746Z,82.46
2018-01-13T09:03:09.607Z,82.84
2018-01-13T09:04:09.524Z,83.12
2018-01-13T09:05:09.792Z,83.03
2018-01-13T09:06:09.802Z,83.22
2018-01-13T09:07:09.569Z,83.22
2018-01-13T09:08:09.878Z,83.12
2018-01-13T09:09:09.591Z,82.93
2018-01-13T09:10:09.862Z,83.22
2018-01-13T09:11:09.877Z,83.22
2018-01-13T09:12:09.888Z,83.22
2018-01-13T09:13:09.653Z,83.03
2018-01-13T09:14:09.928Z,83.5
2018-01-13T09:15:09.684Z,83.4
2018-01-13T09:16:09.949Z,83.69
2018-01-13T09:17:09.962Z,83.69
2018-01-13T09:18:09.730Z,83.22
2018-01-13T09:19:09.996Z,83.69
2018-01-13T09:20:10.010Z,83.22
2018-01-13T09:21:10.021Z,83.4
2018-01-13T09:22:10.034Z,82.93
2018-01-13T09:23:10.047Z,82.84
2018-01-13T09:24:09.813Z,82.74
2018-01-13T09:25:10.076Z,82.88
2018-01-13T09:26:09.842Z,82.65
2018-01-13T09:27:10.107Z,82.65
2018-01-13T09:28:09.870Z,83.03
2018-01-13T09:29:10.149Z,82.84
2018-01-13T09:30:09.901Z,83.4
2018-01-13T09:31:09.916Z,83.12
2018-01-13T09:32:10.183Z,82.88
2018-01-13T09:33:09.947Z,82.46
2018-01-13T09:34:09.971Z,82.97
2018-01-13T09:35:10.228Z,82.88
2018-01-13T09:36:09.989Z,82.88
2018-01-13T09:37:10.005Z,82.97
2018-01-13T09:38:10.269Z,82.97
2018-01-13T09:39:10.285Z,82.5
2018-01-13T09:40:10.051Z,82.69
2018-01-13T09:41:10.331Z,82.59
2018-01-13T09:42:10.337Z,82.69
2018-01-13T09:43:10.341Z,82.59
2018-01-13T09:44:10.358Z,82.65
2018-01-13T09:45:10.123Z,83.12
2018-01-13T09:46:10.138Z,82.59
2018-01-13T09:47:10.408Z,82.78
2018-01-13T09:48:10.170Z,83.22
2018-01-13T09:49:10.437Z,83.22
2018-01-13T09:50:10.451Z,83.12
2018-01-13T09:51:10.215Z,83.12
2018-01-13T09:52:10.232Z,83.31
2018-01-13T09:53:10.244Z,82.84
2018-01-13T09:54:10.515Z,82.55
2018-01-13T09:55:10.279Z,82.69
2018-01-13T09:56:10.541Z,82.59
2018-01-13T09:57:10.305Z,83.4
2018-01-13T09:58:10.319Z,83.12
2018-01-13T09:59:10.590Z,83.12
2018-01-13T10:00:10.602Z,83.31
2018-01-13T10:01:10.616Z,82.84
2018-01-13T10:02:10.632Z,82.93
2018-01-13T10:03:10.647Z,83.31
2018-01-13T10:04:10.662Z,83.22
2018-01-13T10:05:10.425Z,83.22
2018-01-13T10:06:10.438Z,82.74
2018-01-13T10:07:10.701Z,83.5
2018-01-13T10:08:10.468Z,83.5
2018-01-13T10:09:10.485Z,83.69
2018-01-13T10:10:10.753Z,83.59
2018-01-13T10:11:10.517Z,83.69
2018-01-13T10:12:10.549Z,84.45
2018-01-13T10:13:10.543Z,84.92
2018-01-13T10:14:10.818Z,84.36
2018-01-13T10:15:10.573Z,84.17
2018-01-13T10:16:10.589Z,84.74
2018-01-13T10:17:10.605Z,84.45
2018-01-13T10:18:10.620Z,85.02
2018-01-13T10:19:10.889Z,84.26
2018-01-13T10:20:10.648Z,84.92
2018-01-13T10:21:10.664Z,84.55
2018-01-13T10:22:10.691Z,83.88
2018-01-13T10:23:10.692Z,83.5
2018-01-13T10:24:10.964Z,83.59
2018-01-13T10:25:10.725Z,83.78
2018-01-13T10:26:10.989Z,82.74
2018-01-13T10:27:11.007Z,83.45
2018-01-13T10:28:11.036Z,83.12
2018-01-13T10:29:10.782Z,83.69
2018-01-13T10:30:10.806Z,83.88
2018-01-13T10:31:10.815Z,83.88
2018-01-13T10:32:11.110Z,84.26
2018-01-13T10:33:11.101Z,84.17
2018-01-13T10:34:10.857Z,83.88
2018-01-13T10:35:11.127Z,83.59
2018-01-13T10:36:11.143Z,83.69
2018-01-13T10:37:11.158Z,84.07
2018-01-13T10:38:11.171Z,83.03
2018-01-13T10:39:11.189Z,83.03
2018-01-13T10:40:11.014Z,82.97
2018-01-13T10:41:10.966Z,82.59
2018-01-13T10:42:10.981Z,82.21
2018-01-13T10:43:11.246Z,82.59
2018-01-13T10:44:11.260Z,83.03
2018-01-13T10:45:11.024Z,83.12
2018-01-13T10:46:11.041Z,83.12
2018-01-13T10:47:11.307Z,82.93
2018-01-13T10:48:11.072Z,83.59
2018-01-13T10:49:11.338Z,83.88
2018-01-13T10:50:11.350Z,83.88
2018-01-13T10:51:11.116Z,83.97
2018-01-13T10:52:11.383Z,83.97
2018-01-13T10:53:11.397Z,84.17
2018-01-13T10:54:11.161Z,84.55
2018-01-13T10:55:11.175Z,84.92
2018-01-13T10:56:11.440Z,84.55
2018-01-13T10:57:11.456Z,84.92
2018-01-13T10:58:11.475Z,84.55
2018-01-13T10:59:11.488Z,84.45
2018-01-13T11:00:11.250Z,84.26
2018-01-13T11:01:11.520Z,83.88
2018-01-13T11:02:11.282Z,83.88
2018-01-13T11:03:11.547Z,83.5
2018-01-13T11:04:11.559Z,83.12
2018-01-13T11:05:11.324Z,82.88
2018-01-13T11:06:11.590Z,82.21
2018-01-13T11:07:11.355Z,82.69
2018-01-13T11:08:11.369Z,83.03
2018-01-13T11:09:11.386Z,82.93
2018-01-13T11:10:11.651Z,82.5
2018-01-13T11:11:11.689Z,82.69
2018-01-13T11:12:11.459Z,82.74
2018-01-13T11:13:11.444Z,83.22
2018-01-13T11:14:11.711Z,83.22
2018-01-13T11:15:11.727Z,83.03
2018-01-13T11:16:11.488Z,83.03
2018-01-13T11:17:11.760Z,83.22
2018-01-13T11:18:11.769Z,83.59
2018-01-13T11:19:11.787Z,83.59
2018-01-13T11:20:11.546Z,83.5
2018-01-13T11:21:11.563Z,83.88
2018-01-13T11:22:11.574Z,84.17
2018-01-13T11:23:11.846Z,84.17
2018-01-13T11:24:11.858Z,84.17
2018-01-13T11:25:11.874Z,84.45
2018-01-13T11:26:11.640Z,84.17
2018-01-13T11:27:11.904Z,83.88
2018-01-13T11:28:11.916Z,84.17
2018-01-13T11:29:11.682Z,84.78
2018-01-13T11:30:11.955Z,85.07
2018-01-13T11:31:11.710Z,85.74
2018-01-13T11:32:11.725Z,85.74
2018-01-13T11:33:11.987Z,85.83
2018-01-13T11:34:12.005Z,85.21
2018-01-13T11:35:11.768Z,85.36
2018-01-13T11:36:12.031Z,85.26
2018-01-13T11:37:12.099Z,85.36
2018-01-13T11:38:11.817Z,85.26
2018-01-13T11:39:12.077Z,85.36
2018-01-13T11:40:12.107Z,85.26
2018-01-13T11:41:11.855Z,84.88
2018-01-13T11:42:11.870Z,84.92
2018-01-13T11:43:12.137Z,84.92
2018-01-13T11:44:11.899Z,84.36
2018-01-13T11:45:12.166Z,84.45
2018-01-13T11:46:11.931Z,84.83
2018-01-13T11:47:12.194Z,84.78
2018-01-13T11:48:12.213Z,85.02
2018-01-13T11:49:11.972Z,84.26
2018-01-13T11:50:12.238Z,83.78
2018-01-13T11:51:12.001Z,83.59
2018-01-13T11:52:12.271Z,83.31
2018-01-13T11:53:12.030Z,83.31
2018-01-13T11:54:12.394Z,82.93
2018-01-13T11:55:12.061Z,82.55
2018-01-13T11:56:12.325Z,82.93
2018-01-13T11:57:12.339Z,83.31
2018-01-13T11:58:12.352Z,83.22
2018-01-13T11:59:12.575Z,83.46
2018-01-13T12:00:12.385Z,83.65
2018-01-13T12:01:12.401Z,84.12
2018-01-13T12:02:12.162Z,83.88
2018-01-13T12:03:12.430Z,83.65
2018-01-13T12:04:12.291Z,83.88
2018-01-13T12:05:12.204Z,83.88
2018-01-13T12:06:12.472Z,83.94
2018-01-13T12:07:12.487Z,83.78
2018-01-13T12:08:12.503Z,82.93
2018-01-13T12:09:12.566Z,83.22
2018-01-13T12:10:12.532Z,83.12
2018-01-13T12:11:12.546Z,83.22
2018-01-13T12:12:12.563Z,82.84
2018-01-13T12:13:12.323Z,82.55
2018-01-13T12:14:12.339Z,82.84
2018-01-13T12:15:12.603Z,83.31
2018-01-13T12:16:12.366Z,83.03
2018-01-13T12:17:12.636Z,83.17
2018-01-13T12:18:12.646Z,82.84
2018-01-13T12:19:12.668Z,83.5
2018-01-13T12:20:12.679Z,82.84
2018-01-13T12:21:12.708Z,83.36
2018-01-13T12:22:12.706Z,83.27
2018-01-13T12:23:12.727Z,83.55
2018-01-13T12:24:12.737Z,83.84
2018-01-13T12:25:12.753Z,83.46
2018-01-13T12:26:12.564Z,82.84
2018-01-13T12:27:12.531Z,83.27
2018-01-13T12:28:12.794Z,82.84
2018-01-13T12:29:12.813Z,82.84
2018-01-13T12:30:12.831Z,82.98
2018-01-13T12:31:12.840Z,83.17
2018-01-13T12:32:12.864Z,82.65
2018-01-13T12:33:12.871Z,82.46
2018-01-13T12:34:12.886Z,82.74
2018-01-13T12:35:12.903Z,82.46
2018-01-13T12:36:12.913Z,82.27
2018-01-13T12:37:12.933Z,82.27
2018-01-13T12:38:12.690Z,83.27
2018-01-13T12:39:12.955Z,83.17
2018-01-13T12:40:12.977Z,83.08
2018-01-13T12:41:13.037Z,82.65
2018-01-13T12:42:13.000Z,82.84
2018-01-13T12:43:12.766Z,82.84
2018-01-13T12:44:12.777Z,82.65
2018-01-13T12:45:13.043Z,82.55
2018-01-13T12:46:12.808Z,83.17
2018-01-13T12:47:12.820Z,82.79
2018-01-13T12:48:12.836Z,83.08
2018-01-13T12:49:13.103Z,82.65
2018-01-13T12:50:13.129Z,82.65
2018-01-13T12:51:12.982Z,82.08
2018-01-13T12:52:13.147Z,82.27
2018-01-13T12:53:13.162Z,82.27
2018-01-13T12:54:13.182Z,81.88
2018-01-13T12:55:13.194Z,81.7